METAR Data
IDs: Format: Raw Decoded Include TAF

Data at: 0649 UTC 27 Sep 2020

Region: TOP
KATL 270552Z 15004KT 10SM SCT043 BKN250 21/18 A3000 RMK AO2 SLP150 T02060183 10239 20206 58005 $

KBOS 270554Z 20006KT 10SM OVC006 19/18 A3005 RMK AO2 SLP174 T01890178 10211 20183 58010

KBWI 270630Z 00000KT 1/8SM R10/2200V4000FT FG VV002 20/19 A2996 RMK AO2 T02000189

KCLE 270551Z AUTO 19012KT 10SM CLR 20/16 A2984 RMK AO2 SLP114 T02000161 10233 20200 58008

KCLT 270614Z 00000KT 6SM R18C/1200V4000FT BR FEW001 SCT005 SCT250 16/15 A3001 RMK AO2 T01560150

KCVG 270552Z 19004KT 10SM CLR 16/15 A2992 RMK AO2 SLP124 T01610150 10206 20161 58004 $

KDCA 270552Z 00000KT 2 1/2SM -DZ BR BKN005 OVC020 21/19 A2998 RMK AO2 DZE01B34RAB02E34 SLP150 P0001 60006 T02060194 10217 20200 58009

KDEN 270553Z 10004KT 10SM FEW035 BKN140 13/03 A3001 RMK AO2 SLP084 T01280033 10256 20128 50005

KDFW 270553Z 16010KT 10SM CLR 23/18 A2978 RMK AO2 SLP075 T02330183 10278 20228 403060167 56005

KDTW 270553Z 20013KT 10SM BKN250 20/15 A2979 RMK AO2 SLP083 T02000150 10222 20200 58006

KEWR 270551Z 14003KT 7SM BKN005 BKN030 20/19 A3000 RMK AO2 SLP157 T02000189 10217 20200 58014

KFLL 270553Z 00000KT 10SM SCT110 BKN250 26/24 A2996 RMK AO2 SLP143 T02560244 10267 20256 58012

KIAD 270552Z 32003KT 10SM BKN008 OVC031 19/18 A2998 RMK AO2 SLP149 T01940178 10211 20189 58009 $

KIAH 270553Z 16003KT 10SM CLR 23/21 A2987 RMK AO2 SLP114 T02330211 10272 20233 403110183 50001 $

KJFK 270551Z 10006KT 10SM OVC004 20/19 A3001 RMK AO2 SLP160 T02000189 10206 20189 58017 $

KLAS 270556Z 22004KT 10SM BKN200 29/M04 A2988 RMK AO2 SLP090 T02941039 10372 20289 52015

KLAX 270553Z 00000KT 9SM SCT010 SCT270 19/17 A2987 RMK AO2 SLP113 T01940172 10217 20194 51006

KLGA 270551Z 14004KT 10SM BKN007 21/18 A2999 RMK AO2 SLP157 T02110183 10222 20211 58014

KMCO 270553Z 17003KT 10SM FEW070 26/25 A2997 RMK AO2 SLP147 T02560250 10283 20256 58013

KMDW 270553Z 21016G24KT 10SM BKN250 21/14 A2969 RMK AO2 PK WND 21027/0454 SLP048 T02060144 10256 20206 402560172 50000

KMEM 270554Z 17003KT 10SM CLR 18/17 A2991 RMK AO2 SLP124 T01780167 10222 20172 402440172 58005

KMIA 270553Z 23003KT 10SM BKN150 BKN250 25/24 A2997 RMK AO2 SLP148 60004 T02500239 10256 20239 58011

KMSP 270553Z 27006KT 10SM FEW050 14/14 A2962 RMK AO2 SLP029 60001 T01440139 10189 20139 402110139 53023 $

KORD 270551Z 21017G26KT 10SM SCT250 22/15 A2967 RMK AO2 PK WND 21032/0518 SLP043 T02170150 10261 20217 402610178 58000

KPDX 270553Z 00000KT 10SM SCT085 14/11 A3028 RMK AO2 SLP253 T01390106 10211 20139 51018

KPHL 270554Z 12006KT 10SM OVC009 20/18 A2999 RMK AO2 SLP154 T02000183 10217 20200 58010

KPHX 270551Z 00000KT 10SM CLR 31/04 A2981 RMK AO2 SLP073 T03110044 10383 20306 51005

KPIT 270551Z 17003KT 10SM FEW035 FEW250 16/14 A2994 RMK AO2 SLP141 T01560139 10217 20150 58005

KSAN 270551Z 00000KT 10SM OVC011 20/16 A2990 RMK AO2 SLP125 T02000161 10228 20200 51005

KSEA 270553Z 18009KT 10SM FEW018 13/11 A3024 RMK AO2 SLP244 T01330111 10167 20133 51014

KSFO 270556Z 30010KT 10SM FEW170 18/12 A2993 RMK AO2 SLP136 T01830122 10228 20183 58000

KSLC 270554Z 32006KT 10SM FEW080 SCT120 15/06 A3014 RMK AO2 SLP167 T01500056 10217 20144 51020 $

KSTL 270551Z 22004KT 10SM FEW250 20/16 A2981 RMK AO2 SLP084 T02000161 10267 20200 403000178 55001 $

KTPA 270553Z 00000KT 10SM FEW050 27/21 A2996 RMK AO2 SLP145 T02670211 10289 20261 58014